createdAt,value
2023-12-09T00:01:41.497Z,23.40
2023-12-09T00:04:13.019Z,16.20
2023-12-09T00:06:51.540Z,19.30
2023-12-09T00:09:23.387Z,17.20
2023-12-09T00:11:54.563Z,18.10
2023-12-09T00:14:25.794Z,19.40
2023-12-09T00:16:57.572Z,19.90
2023-12-09T00:19:28.567Z,16.50
2023-12-09T00:22:00.372Z,16.60
2023-12-09T00:24:31.672Z,20.50
2023-12-09T00:27:02.963Z,17.40
2023-12-09T00:29:33.851Z,19.00
2023-12-09T00:32:05.578Z,19.30
2023-12-09T00:34:38.210Z,17.00
2023-12-09T00:37:09.216Z,17.40
2023-12-09T00:39:40.283Z,14.30
2023-12-09T00:42:11.622Z,13.20
2023-12-09T00:45:10.250Z,16.90
2023-12-09T00:48:02.180Z,14.80
2023-12-09T00:50:33.362Z,15.70
2023-12-09T00:53:04.856Z,18.60
2023-12-09T00:55:36.787Z,18.50
2023-12-09T00:58:07.830Z,19.60
2023-12-09T01:00:38.892Z,17.30
2023-12-09T01:03:19.273Z,21.40
2023-12-09T01:05:50.390Z,19.70
2023-12-09T01:08:21.972Z,17.70
2023-12-09T01:10:54.286Z,17.70
2023-12-09T01:13:25.501Z,22.70
2023-12-09T01:15:56.545Z,25.30
2023-12-09T01:18:27.447Z,23.20
2023-12-09T01:20:58.872Z,24.10
2023-12-09T01:23:29.753Z,22.30
2023-12-09T01:26:00.765Z,19.50
2023-12-09T01:28:39.463Z,21.00
2023-12-09T01:34:18.629Z,21.20
2023-12-09T01:36:49.523Z,20.60
2023-12-09T01:42:46.590Z,23.90
2023-12-09T01:45:37.682Z,26.10
2023-12-09T01:48:09.917Z,18.50
2023-12-09T01:50:41.278Z,25.10
2023-12-09T01:56:30.329Z,24.00
2023-12-09T01:59:01.719Z,22.40
2023-12-09T02:01:48.531Z,17.50
2023-12-09T02:04:23.752Z,19.00
2023-12-09T02:06:54.715Z,20.00
2023-12-09T02:09:26.181Z,23.90
2023-12-09T02:12:08.806Z,23.70
2023-12-09T02:14:46.967Z,24.80
2023-12-09T02:17:30.842Z,25.60
2023-12-09T02:20:06.805Z,22.20
2023-12-09T02:22:40.705Z,23.70
2023-12-09T02:25:12.866Z,18.60
2023-12-09T02:27:51.260Z,19.10
2023-12-09T02:30:59.977Z,17.00
2023-12-09T02:37:01.540Z,20.20
2023-12-09T02:39:32.955Z,21.60
2023-12-09T02:42:13.783Z,20.50
2023-12-09T02:44:45.884Z,22.20
2023-12-09T02:47:17.436Z,21.60
2023-12-09T02:49:49.213Z,21.10
2023-12-09T02:52:20.623Z,22.60
2023-12-09T02:55:01.186Z,24.10
2023-12-09T02:57:39.587Z,19.50
2023-12-09T03:00:13.804Z,19.50
2023-12-09T03:02:50.887Z,21.20
2023-12-09T03:05:28.149Z,23.70
2023-12-09T03:07:59.214Z,23.10
2023-12-09T03:10:55.266Z,26.30
2023-12-09T03:13:31.374Z,16.00
2023-12-09T03:16:06.544Z,22.10
2023-12-09T03:22:07.299Z,15.50
2023-12-09T03:24:38.347Z,15.80
2023-12-09T03:27:09.741Z,22.70
2023-12-09T03:29:41.645Z,20.10
2023-12-09T03:32:12.900Z,24.10
2023-12-09T03:34:45.215Z,23.70
2023-12-09T03:37:16.658Z,25.00
2023-12-09T03:39:47.921Z,25.40
2023-12-09T03:42:19.868Z,20.50
2023-12-09T03:44:50.873Z,23.80
2023-12-09T03:47:29.009Z,22.10
2023-12-09T03:50:05.177Z,22.90
2023-12-09T03:52:36.762Z,22.50
2023-12-09T03:55:08.603Z,23.60
2023-12-09T03:57:39.478Z,23.20
2023-12-09T04:00:14.541Z,22.30
2023-12-09T04:02:45.808Z,22.90
2023-12-09T04:05:16.771Z,22.30
2023-12-09T04:07:47.695Z,21.70
2023-12-09T04:10:18.868Z,17.00
2023-12-09T04:12:50.253Z,20.00
2023-12-09T04:15:21.291Z,22.80
2023-12-09T04:17:52.345Z,24.10
2023-12-09T04:20:24.787Z,23.60
2023-12-09T04:22:56.123Z,25.50
2023-12-09T04:25:27.456Z,21.80
2023-12-09T04:27:58.658Z,22.00
2023-12-09T04:30:29.488Z,23.00
2023-12-09T04:33:05.213Z,22.40
2023-12-09T04:35:36.387Z,19.50
2023-12-09T04:38:07.253Z,14.90
2023-12-09T04:40:39.604Z,15.60
2023-12-09T04:43:11.037Z,20.20
2023-12-09T04:45:42.039Z,26.70
2023-12-09T04:48:13.698Z,19.80
2023-12-09T04:50:44.853Z,23.40
2023-12-09T04:53:16.062Z,23.70
2023-12-09T04:55:47.133Z,24.30
2023-12-09T04:58:18.230Z,21.60
2023-12-09T05:00:49.070Z,24.40
2023-12-09T05:03:24.111Z,23.40
2023-12-09T05:08:25.588Z,22.20
2023-12-09T05:10:56.349Z,16.90
2023-12-09T05:13:28.172Z,18.10
2023-12-09T05:15:59.371Z,22.00
2023-12-09T05:18:31.422Z,22.80
2023-12-09T05:21:02.579Z,18.90
2023-12-09T05:23:34.568Z,24.40
2023-12-09T05:26:06.611Z,22.50
2023-12-09T05:28:37.858Z,20.80
2023-12-09T05:31:09.421Z,21.50
2023-12-09T05:33:42.160Z,22.40
2023-12-09T05:36:13.700Z,21.00
2023-12-09T05:38:45.716Z,21.40
2023-12-09T05:41:16.798Z,20.20
2023-12-09T05:43:47.693Z,21.60
2023-12-09T05:46:22.648Z,21.90
2023-12-09T05:48:54.355Z,20.90
2023-12-09T05:51:25.540Z,18.00
2023-12-09T05:53:56.602Z,19.10
2023-12-09T05:56:28.379Z,15.90
2023-12-09T05:58:59.535Z,15.50
2023-12-09T06:01:32.106Z,21.50
2023-12-09T06:04:03.080Z,17.60
2023-12-09T06:06:34.433Z,22.20
2023-12-09T06:09:06.233Z,21.80
2023-12-09T06:11:37.282Z,20.00
2023-12-09T06:14:09.497Z,18.20
2023-12-09T06:16:40.461Z,17.00
2023-12-09T06:19:11.396Z,20.20
2023-12-09T06:21:42.392Z,21.20
2023-12-09T06:24:16.558Z,19.60
2023-12-09T06:29:53.438Z,15.10
2023-12-09T06:32:28.668Z,22.10
2023-12-09T06:34:59.961Z,18.20
2023-12-09T06:37:31.263Z,19.80
2023-12-09T06:40:02.167Z,18.70
2023-12-09T06:42:49.124Z,22.70
2023-12-09T06:45:20.889Z,18.60
2023-12-09T06:47:55.277Z,16.40
2023-12-09T06:50:27.186Z,23.30
2023-12-09T06:52:59.568Z,21.90
2023-12-09T06:55:34.067Z,22.30
2023-12-09T06:58:09.555Z,22.10
2023-12-09T07:00:41.205Z,20.70
2023-12-09T07:03:13.472Z,24.40
2023-12-09T07:05:44.672Z,16.50
2023-12-09T07:08:15.722Z,21.40
2023-12-09T07:10:48.605Z,23.20
2023-12-09T07:13:20.337Z,21.40
2023-12-09T07:15:52.747Z,20.50
2023-12-09T07:18:25.823Z,23.40
2023-12-09T07:20:57.426Z,23.10
2023-12-09T07:23:28.204Z,21.30
2023-12-09T07:25:58.979Z,22.50
2023-12-09T07:28:30.984Z,18.30
2023-12-09T07:31:04.721Z,21.30
2023-12-09T07:33:35.978Z,22.50
2023-12-09T07:36:08.236Z,14.20
2023-12-09T07:38:39.428Z,19.30
2023-12-09T07:41:10.536Z,21.00
2023-12-09T07:43:41.952Z,23.70
2023-12-09T07:46:12.854Z,21.90
2023-12-09T07:48:43.804Z,24.90
2023-12-09T07:51:15.448Z,23.60
2023-12-09T07:53:49.628Z,17.70
2023-12-09T07:56:21.186Z,20.40
2023-12-09T07:58:52.876Z,22.20
2023-12-09T08:01:24.614Z,22.10
2023-12-09T08:03:56.003Z,24.60
2023-12-09T08:06:26.938Z,21.80
2023-12-09T08:08:58.681Z,24.40
2023-12-09T08:11:29.583Z,24.10
2023-12-09T08:14:00.834Z,21.80
2023-12-09T08:16:31.848Z,23.50
2023-12-09T08:19:02.759Z,19.60
2023-12-09T08:21:38.935Z,24.00
2023-12-09T08:24:12.360Z,21.00
2023-12-09T08:26:46.029Z,25.20
2023-12-09T08:29:17.512Z,27.50
2023-12-09T08:31:50.710Z,23.10
2023-12-09T08:34:27.875Z,20.30
2023-12-09T08:36:59.873Z,25.80
2023-12-09T08:39:31.885Z,22.10
2023-12-09T08:42:02.712Z,21.40
2023-12-09T08:44:34.448Z,21.30
2023-12-09T08:47:05.410Z,19.60
2023-12-09T08:49:36.670Z,18.00
2023-12-09T08:52:08.304Z,29.30
2023-12-09T08:54:39.613Z,23.80
2023-12-09T08:57:12.147Z,24.20
2023-12-09T08:59:43.120Z,26.20
2023-12-09T09:02:14.056Z,24.40
2023-12-09T09:04:45.156Z,27.20
2023-12-09T09:07:16.340Z,25.80
2023-12-09T09:09:47.151Z,24.50
2023-12-09T09:12:26.729Z,25.70
2023-12-09T09:14:57.865Z,28.10
2023-12-09T09:17:30.212Z,27.40
2023-12-09T09:20:01.126Z,28.30
2023-12-09T09:22:31.965Z,24.90
2023-12-09T09:25:05.614Z,25.50
2023-12-09T09:27:39.880Z,23.20
2023-12-09T09:30:12.557Z,25.90
2023-12-09T09:32:44.115Z,24.90
2023-12-09T09:38:49.903Z,22.20
2023-12-09T09:41:30.514Z,25.20
2023-12-09T09:44:12.784Z,25.90
2023-12-09T09:46:47.512Z,22.40
2023-12-09T09:49:22.170Z,25.40
2023-12-09T09:51:59.344Z,26.90
2023-12-09T09:54:34.391Z,23.70
2023-12-09T09:57:09.595Z,25.30
2023-12-09T09:59:41.781Z,26.30
2023-12-09T10:02:14.567Z,25.70
2023-12-09T10:04:46.343Z,24.80
2023-12-09T10:07:21.383Z,23.90
2023-12-09T10:09:52.924Z,27.20
2023-12-09T10:12:23.685Z,24.30
2023-12-09T10:18:58.275Z,27.50
2023-12-09T10:21:29.264Z,21.60
2023-12-09T10:24:00.228Z,25.80
2023-12-09T10:26:35.683Z,25.30
2023-12-09T10:29:11.025Z,24.30
2023-12-09T10:31:42.639Z,26.70
2023-12-09T10:34:30.022Z,25.70
2023-12-09T10:37:01.554Z,25.80
2023-12-09T10:39:40.742Z,25.90
2023-12-09T10:42:12.661Z,27.50
2023-12-09T10:44:43.739Z,27.60
2023-12-09T10:47:15.016Z,25.60
2023-12-09T10:49:46.142Z,28.30
2023-12-09T10:52:17.270Z,28.20
2023-12-09T10:54:53.077Z,27.00
2023-12-09T10:57:25.056Z,25.20
2023-12-09T11:00:01.796Z,27.90
2023-12-09T11:02:41.666Z,28.50
2023-12-09T11:05:14.438Z,29.80
2023-12-09T11:07:51.578Z,28.80
2023-12-09T11:10:23.750Z,30.10
2023-12-09T11:12:54.598Z,29.80
2023-12-09T11:15:33.778Z,26.70
2023-12-09T11:18:12.806Z,30.80
2023-12-09T11:20:47.672Z,25.10
2023-12-09T11:23:18.485Z,28.60
2023-12-09T11:25:52.338Z,27.70
2023-12-09T11:28:25.844Z,25.50
2023-12-09T11:30:59.569Z,28.00
2023-12-09T11:33:31.087Z,30.50
2023-12-09T11:36:18.571Z,26.40
2023-12-09T11:38:50.643Z,26.30
2023-12-09T11:41:22.378Z,26.70
2023-12-09T11:43:55.524Z,27.00
2023-12-09T11:46:28.166Z,28.60
2023-12-09T11:49:04.346Z,28.20
2023-12-09T11:51:36.776Z,23.80
2023-12-09T11:54:09.547Z,28.30
2023-12-09T11:56:43.536Z,28.10
2023-12-09T11:59:14.647Z,28.00
2023-12-09T12:01:47.092Z,27.60
2023-12-09T12:04:18.726Z,26.50
2023-12-09T12:06:49.993Z,28.00
2023-12-09T12:09:25.310Z,22.80
2023-12-09T12:11:56.704Z,27.00
2023-12-09T12:14:28.825Z,26.20
2023-12-09T12:17:01.640Z,25.40
2023-12-09T12:19:37.307Z,28.90
2023-12-09T12:22:09.114Z,29.70
2023-12-09T12:24:56.055Z,25.10
2023-12-09T12:27:27.512Z,27.30
2023-12-09T12:29:58.782Z,25.00
2023-12-09T12:32:30.406Z,25.60
2023-12-09T12:35:04.649Z,26.50
2023-12-09T12:37:35.872Z,29.70
2023-12-09T12:40:08.859Z,28.50
2023-12-09T12:42:43.781Z,28.90
2023-12-09T12:45:24.087Z,30.70
2023-12-09T12:47:56.648Z,29.30
2023-12-09T12:50:28.040Z,28.10
2023-12-09T12:53:00.041Z,25.00
2023-12-09T12:55:33.804Z,31.50
2023-12-09T12:58:05.195Z,23.90
2023-12-09T13:00:36.299Z,28.60
2023-12-09T13:03:08.758Z,29.30
2023-12-09T13:05:39.801Z,26.80
2023-12-09T13:08:13.558Z,30.90
2023-12-09T13:10:44.803Z,27.60
2023-12-09T13:13:15.645Z,29.90
2023-12-09T13:15:46.765Z,31.50
2023-12-09T13:18:21.345Z,23.90
2023-12-09T13:20:54.490Z,28.30
2023-12-09T13:23:27.238Z,26.40
2023-12-09T13:26:01.302Z,20.40
2023-12-09T13:28:32.617Z,25.10
2023-12-09T13:31:04.016Z,27.60
2023-12-09T13:33:35.269Z,29.80
2023-12-09T13:36:13.573Z,25.90
2023-12-09T13:38:45.733Z,25.10
2023-12-09T13:41:16.763Z,25.30
2023-12-09T13:43:49.940Z,26.20
2023-12-09T13:46:20.797Z,27.90
2023-12-09T13:48:51.823Z,25.30
2023-12-09T13:51:24.259Z,25.60
2023-12-09T13:53:58.988Z,29.00
2023-12-09T13:56:29.888Z,29.60
2023-12-09T13:59:09.016Z,27.80
2023-12-09T14:01:42.632Z,27.30
2023-12-09T14:04:14.180Z,26.80
2023-12-09T14:06:45.540Z,27.70
2023-12-09T14:09:17.315Z,21.70
2023-12-09T14:11:49.476Z,26.40
2023-12-09T14:14:21.443Z,25.80
2023-12-09T14:16:52.411Z,27.60
2023-12-09T14:19:35.243Z,27.20
2023-12-09T14:22:06.916Z,27.30
2023-12-09T14:24:38.110Z,23.00
2023-12-09T14:27:18.263Z,29.00
2023-12-09T14:30:07.441Z,28.70
2023-12-09T14:32:51.069Z,25.50
2023-12-09T14:35:22.225Z,24.20
2023-12-09T14:37:57.006Z,27.00
2023-12-09T14:40:27.885Z,27.20
2023-12-09T14:42:58.692Z,30.60
2023-12-09T14:45:32.515Z,27.60
2023-12-09T14:48:07.746Z,25.10
2023-12-09T14:50:39.234Z,25.00
2023-12-09T14:53:12.818Z,24.00
2023-12-09T14:55:44.076Z,28.50
2023-12-09T14:58:15.443Z,25.20
2023-12-09T15:00:50.899Z,28.90
2023-12-09T15:03:22.929Z,30.20
2023-12-09T15:05:54.135Z,26.30
2023-12-09T15:08:25.340Z,27.60
2023-12-09T15:10:56.263Z,28.20
2023-12-09T15:13:35.283Z,28.10
2023-12-09T15:16:06.755Z,24.50
2023-12-09T15:18:38.948Z,29.70
2023-12-09T15:21:10.345Z,31.00
2023-12-09T15:23:41.365Z,28.50
2023-12-09T15:26:14.964Z,24.90
2023-12-09T15:28:48.712Z,29.90
2023-12-09T15:33:53.455Z,22.40
2023-12-09T15:36:24.955Z,26.90
2023-12-09T15:38:55.887Z,29.00
2023-12-09T15:41:29.089Z,27.50
2023-12-09T15:44:00.187Z,25.50
2023-12-09T15:46:42.861Z,30.20
2023-12-09T15:49:14.173Z,26.40
2023-12-09T15:51:45.235Z,30.80
2023-12-09T15:54:17.773Z,28.00
2023-12-09T15:56:48.796Z,27.00
2023-12-09T15:59:22.491Z,27.50
2023-12-09T16:01:56.050Z,27.10
2023-12-09T16:04:30.833Z,31.70
2023-12-09T16:09:41.053Z,24.00
2023-12-09T16:12:18.465Z,25.60
2023-12-09T16:14:53.919Z,30.70
2023-12-09T16:17:25.243Z,31.00
2023-12-09T16:19:56.182Z,31.90
2023-12-09T16:22:27.282Z,29.10
2023-12-09T16:24:59.131Z,28.60
2023-12-09T16:27:30.210Z,29.50
2023-12-09T16:30:01.843Z,31.60
2023-12-09T16:32:32.820Z,28.30
2023-12-09T16:35:07.864Z,32.10
2023-12-09T16:37:39.718Z,31.80
2023-12-09T16:40:14.870Z,32.70
2023-12-09T16:45:15.990Z,28.30
2023-12-09T16:47:50.379Z,32.30
2023-12-09T16:50:25.877Z,32.50
2023-12-09T16:52:59.897Z,33.10
2023-12-09T16:55:34.263Z,30.90
2023-12-09T16:58:05.336Z,29.60
2023-12-09T17:00:36.346Z,30.30
2023-12-09T17:03:16.220Z,27.90
2023-12-09T17:05:54.860Z,29.80
2023-12-09T17:08:32.815Z,31.50
2023-12-09T17:11:03.870Z,30.80
2023-12-09T17:13:34.869Z,31.70
2023-12-09T17:16:06.135Z,28.50
2023-12-09T17:18:38.110Z,28.10
2023-12-09T17:21:12.385Z,31.10
2023-12-09T17:23:46.585Z,33.10
2023-12-09T17:26:18.481Z,28.80
2023-12-09T17:29:12.515Z,36.70
2023-12-09T17:31:48.482Z,33.70
2023-12-09T17:34:20.264Z,28.60
2023-12-09T17:36:52.060Z,32.40
2023-12-09T17:39:22.989Z,32.20
2023-12-09T17:41:59.997Z,35.50
2023-12-09T17:44:30.880Z,30.40
2023-12-09T17:47:02.853Z,33.50
2023-12-09T17:49:34.123Z,28.80
2023-12-09T17:52:06.013Z,29.10
2023-12-09T17:54:39.552Z,30.40
2023-12-09T17:57:10.999Z,32.50
2023-12-09T17:59:43.253Z,28.70
2023-12-09T18:02:14.957Z,31.80
2023-12-09T18:04:46.634Z,38.70
2023-12-09T18:07:20.626Z,32.50
2023-12-09T18:09:52.124Z,31.90
2023-12-09T18:12:23.280Z,32.50
2023-12-09T18:14:54.073Z,34.50
2023-12-09T18:17:26.950Z,31.90
2023-12-09T18:20:02.018Z,33.40
2023-12-09T18:22:33.218Z,34.50
2023-12-09T18:25:04.192Z,32.00
2023-12-09T18:27:36.400Z,35.10
2023-12-09T18:30:11.440Z,28.00
2023-12-09T18:32:43.810Z,37.60
2023-12-09T18:35:15.295Z,30.90
2023-12-09T18:37:47.004Z,35.00
2023-12-09T18:40:24.499Z,35.30
2023-12-09T18:42:57.248Z,36.10
2023-12-09T18:45:29.685Z,33.80
2023-12-09T18:48:03.770Z,33.50
2023-12-09T18:50:43.366Z,32.70
2023-12-09T18:53:15.506Z,32.40
2023-12-09T18:55:46.276Z,37.90
2023-12-09T18:58:17.255Z,32.10
2023-12-09T19:00:58.831Z,32.60
2023-12-09T19:03:47.120Z,34.10
2023-12-09T19:06:18.806Z,34.30
2023-12-09T19:08:49.855Z,34.50
2023-12-09T19:11:21.472Z,34.70
2023-12-09T19:13:52.270Z,34.70
2023-12-09T19:16:23.211Z,31.10
2023-12-09T19:18:58.534Z,34.30
2023-12-09T19:21:29.848Z,31.90
2023-12-09T19:24:03.407Z,31.80
2023-12-09T19:26:34.507Z,29.50
2023-12-09T19:29:05.891Z,35.30
2023-12-09T19:31:38.698Z,30.80
2023-12-09T19:34:13.615Z,33.20
2023-12-09T19:36:47.671Z,27.50
2023-12-09T19:39:25.719Z,33.40
2023-12-09T19:41:57.371Z,35.60
2023-12-09T19:45:04.001Z,34.20
2023-12-09T19:47:36.816Z,31.60
2023-12-09T19:50:09.517Z,28.60
2023-12-09T19:52:40.280Z,37.30
2023-12-09T19:55:12.324Z,33.40
2023-12-09T19:57:43.667Z,34.70
2023-12-09T20:00:16.773Z,33.80
2023-12-09T20:02:48.166Z,34.00
2023-12-09T20:05:20.186Z,35.10
2023-12-09T20:07:51.392Z,33.70
2023-12-09T20:10:23.198Z,38.20
2023-12-09T20:12:54.538Z,36.00
2023-12-09T20:15:30.105Z,36.00
2023-12-09T20:18:01.645Z,31.70
2023-12-09T20:20:32.640Z,35.10
2023-12-09T20:23:04.088Z,35.70
2023-12-09T20:25:35.965Z,35.90
2023-12-09T20:28:07.953Z,35.30
2023-12-09T20:30:40.223Z,30.10
2023-12-09T20:33:11.946Z,28.80
2023-12-09T20:35:43.521Z,33.60
2023-12-09T20:38:14.592Z,31.80
2023-12-09T20:40:45.922Z,32.10
2023-12-09T20:43:17.122Z,32.30
2023-12-09T20:45:48.955Z,33.50
2023-12-09T20:48:21.386Z,33.90
2023-12-09T20:50:52.497Z,34.00
2023-12-09T20:53:24.256Z,33.90
2023-12-09T20:55:55.050Z,37.70
2023-12-09T20:58:26.190Z,31.80
2023-12-09T21:01:02.644Z,34.20
2023-12-09T21:03:33.822Z,32.00
2023-12-09T21:06:04.977Z,32.80
2023-12-09T21:08:35.736Z,34.90
2023-12-09T21:11:10.046Z,32.10
2023-12-09T21:13:41.872Z,31.80
2023-12-09T21:16:12.783Z,34.50
2023-12-09T21:18:43.655Z,35.00
2023-12-09T21:21:15.150Z,36.80
2023-12-09T21:23:46.204Z,31.70
2023-12-09T21:26:17.341Z,33.60
2023-12-09T21:28:48.319Z,32.90
2023-12-09T21:31:19.267Z,31.70
2023-12-09T21:33:50.190Z,36.50
2023-12-09T21:36:21.256Z,32.30
2023-12-09T21:38:52.319Z,32.40
2023-12-09T21:41:24.755Z,35.30
2023-12-09T21:43:55.803Z,32.70
2023-12-09T21:46:27.490Z,38.90
2023-12-09T21:49:00.457Z,32.40
2023-12-09T21:51:31.768Z,28.80
2023-12-09T21:54:02.589Z,32.60
2023-12-09T21:56:33.510Z,34.60
2023-12-09T21:59:04.399Z,32.80
2023-12-09T22:01:36.810Z,31.80
2023-12-09T22:04:08.246Z,29.40
2023-12-09T22:06:39.517Z,31.50
2023-12-09T22:09:10.386Z,31.70
2023-12-09T22:11:42.868Z,31.60
2023-12-09T22:14:13.793Z,34.20
2023-12-09T22:16:44.773Z,33.30
2023-12-09T22:19:16.490Z,32.70
2023-12-09T22:21:48.112Z,27.20
2023-12-09T22:24:19.241Z,28.70
2023-12-09T22:26:50.035Z,34.60
2023-12-09T22:29:21.027Z,32.40
2023-12-09T22:31:52.452Z,32.90
2023-12-09T22:34:23.458Z,36.30
2023-12-09T22:36:54.528Z,33.10
2023-12-09T22:39:26.210Z,29.00
2023-12-09T22:41:57.072Z,32.30
2023-12-09T22:44:27.808Z,33.00
2023-12-09T22:46:58.711Z,33.70
2023-12-09T22:49:29.558Z,31.10
2023-12-09T22:52:03.394Z,34.30
2023-12-09T22:54:34.088Z,29.60
2023-12-09T22:57:09.949Z,32.80
2023-12-09T22:59:41.003Z,29.20
2023-12-09T23:02:11.898Z,35.30
2023-12-09T23:04:42.711Z,33.50
2023-12-09T23:07:13.543Z,35.20
2023-12-09T23:09:44.297Z,33.40
2023-12-09T23:12:15.247Z,33.90
2023-12-09T23:14:45.991Z,34.20
2023-12-09T23:17:16.799Z,32.60
2023-12-09T23:19:49.552Z,32.50
2023-12-09T23:22:20.366Z,33.70
2023-12-09T23:24:51.204Z,31.20
2023-12-09T23:27:22.422Z,30.10
2023-12-09T23:29:53.152Z,30.70
2023-12-09T23:32:24.025Z,32.80
2023-12-09T23:34:54.910Z,26.20
2023-12-09T23:37:25.781Z,30.30
2023-12-09T23:39:56.582Z,35.20
2023-12-09T23:42:27.640Z,32.00
2023-12-09T23:44:58.638Z,34.60
2023-12-09T23:47:29.502Z,32.00
2023-12-09T23:50:00.377Z,33.30
2023-12-09T23:52:31.250Z,30.30
2023-12-09T23:55:03.647Z,27.90
2023-12-09T23:57:34.465Z,27.20
